sensor_id;sensor_type;location;lat;lon;timestamp;pressure;altitude;pressure_sealevel;temperature;humidity
25759;BME280;13604;52.496;13.456;2023-02-13T00:01:52;103339.94;;;6.60;100.00
25759;BME280;13604;52.496;13.456;2023-02-13T00:04:18;103337.84;;;6.65;100.00
25759;BME280;13604;52.496;13.456;2023-02-13T00:06:43;103337.84;;;6.65;100.00
25759;BME280;13604;52.496;13.456;2023-02-13T00:09:12;103289.28;;;6.38;100.00
25759;BME280;13604;52.496;13.456;2023-02-13T00:11:37;103342.25;;;6.66;100.00
25759;BME280;13604;52.496;13.456;2023-02-13T00:14:02;103334.44;;;6.57;100.00
25759;BME280;13604;52.496;13.456;2023-02-13T00:16:28;103340.84;;;6.61;100.00
25759;BME280;13604;52.496;13.456;2023-02-13T00:18:53;103334.28;;;6.56;100.00
25759;BME280;13604;52.496;13.456;2023-02-13T00:21:18;103321.00;;;6.44;100.00
25759;BME280;13604;52.496;13.456;2023-02-13T00:23:43;103337.59;;;6.46;100.00
25759;BME280;13604;52.496;13.456;2023-02-13T00:26:11;103328.03;;;6.45;100.00
25759;BME280;13604;52.496;13.456;2023-02-13T00:28:37;103332.16;;;6.52;100.00
25759;BME280;13604;52.496;13.456;2023-02-13T00:31:10;103316.13;;;6.38;100.00
25759;BME280;13604;52.496;13.456;2023-02-13T00:33:36;103337.91;;;6.49;100.00
25759;BME280;13604;52.496;13.456;2023-02-13T00:36:06;103336.09;;;6.48;100.00
25759;BME280;13604;52.496;13.456;2023-02-13T00:38:31;103337.44;;;6.44;100.00
25759;BME280;13604;52.496;13.456;2023-02-13T00:40:57;103334.59;;;6.50;100.00
25759;BME280;13604;52.496;13.456;2023-02-13T00:43:22;103324.50;;;6.44;100.00
25759;BME280;13604;52.496;13.456;2023-02-13T00:45:47;103336.84;;;6.47;100.00
25759;BME280;13604;52.496;13.456;2023-02-13T00:48:13;103338.38;;;6.45;100.00
25759;BME280;13604;52.496;13.456;2023-02-13T00:50:38;103317.75;;;6.38;100.00
25759;BME280;13604;52.496;13.456;2023-02-13T00:53:03;103334.13;;;6.54;100.00
25759;BME280;13604;52.496;13.456;2023-02-13T00:55:29;103320.50;;;6.39;100.00
25759;BME280;13604;52.496;13.456;2023-02-13T00:57:54;103305.53;;;6.28;100.00
25759;BME280;13604;52.496;13.456;2023-02-13T01:00:19;103330.28;;;6.42;100.00
25759;BME280;13604;52.496;13.456;2023-02-13T01:02:45;103332.56;;;6.39;100.00
25759;BME280;13604;52.496;13.456;2023-02-13T01:05:10;103328.75;;;6.35;100.00
25759;BME280;13604;52.496;13.456;2023-02-13T01:07:35;103331.97;;;6.41;100.00
25759;BME280;13604;52.496;13.456;2023-02-13T01:10:01;103322.19;;;6.30;100.00
25759;BME280;13604;52.496;13.456;2023-02-13T01:12:26;103328.75;;;6.35;100.00
25759;BME280;13604;52.496;13.456;2023-02-13T01:14:51;103341.34;;;6.32;100.00
25759;BME280;13604;52.496;13.456;2023-02-13T01:17:16;103314.50;;;6.23;100.00
25759;BME280;13604;52.496;13.456;2023-02-13T01:19:42;103315.91;;;6.28;100.00
25759;BME280;13604;52.496;13.456;2023-02-13T01:22:07;103338.47;;;6.38;100.00
25759;BME280;13604;52.496;13.456;2023-02-13T01:24:33;103309.63;;;6.17;100.00
25759;BME280;13604;52.496;13.456;2023-02-13T01:26:58;103329.63;;;6.27;100.00
25759;BME280;13604;52.496;13.456;2023-02-13T01:29:26;103307.53;;;6.22;100.00
25759;BME280;13604;52.496;13.456;2023-02-13T01:31:51;103317.09;;;6.23;100.00
25759;BME280;13604;52.496;13.456;2023-02-13T01:34:16;103310.69;;;6.19;99.35
25759;BME280;13604;52.496;13.456;2023-02-13T01:36:42;103334.19;;;6.30;99.42
25759;BME280;13604;52.496;13.456;2023-02-13T01:39:10;103331.59;;;6.30;99.98
25759;BME280;13604;52.496;13.456;2023-02-13T01:41:36;103329.16;;;6.31;99.53
25759;BME280;13604;52.496;13.456;2023-02-13T01:44:03;103330.25;;;6.33;99.34
25759;BME280;13604;52.496;13.456;2023-02-13T01:46:32;103316.19;;;6.22;99.31
25759;BME280;13604;52.496;13.456;2023-02-13T01:49:04;103323.22;;;6.23;100.00
25759;BME280;13604;52.496;13.456;2023-02-13T01:51:33;103325.50;;;6.29;99.89
25759;BME280;13604;52.496;13.456;2023-02-13T01:54:13;103320.31;;;6.20;100.00
25759;BME280;13604;52.496;13.456;2023-02-13T01:56:48;103322.28;;;6.23;100.00
25759;BME280;13604;52.496;13.456;2023-02-13T01:59:20;103309.88;;;6.12;100.00
25759;BME280;13604;52.496;13.456;2023-02-13T02:01:46;103328.97;;;6.21;100.00
25759;BME280;13604;52.496;13.456;2023-02-13T02:04:21;103328.66;;;6.18;100.00
25759;BME280;13604;52.496;13.456;2023-02-13T02:06:52;103320.88;;;6.18;100.00
25759;BME280;13604;52.496;13.456;2023-02-13T02:09:22;103319.06;;;6.17;100.00
25759;BME280;13604;52.496;13.456;2023-02-13T02:14:40;103307.88;;;6.00;100.00
25759;BME280;13604;52.496;13.456;2023-02-13T02:17:05;103328.78;;;6.11;100.00
25759;BME280;13604;52.496;13.456;2023-02-13T02:28:18;103327.88;;;5.94;100.00
25759;BME280;13604;52.496;13.456;2023-02-13T02:31:25;103337.06;;;5.99;100.00
25759;BME280;13604;52.496;13.456;2023-02-13T02:34:16;103338.97;;;5.93;100.00
25759;BME280;13604;52.496;13.456;2023-02-13T02:37:28;103337.28;;;5.94;100.00
25759;BME280;13604;52.496;13.456;2023-02-13T02:40:18;103329.66;;;5.86;100.00
25759;BME280;13604;52.496;13.456;2023-02-13T02:45:55;103338.22;;;5.94;100.00
25759;BME280;13604;52.496;13.456;2023-02-13T02:48:31;103334.41;;;5.90;100.00
25759;BME280;13604;52.496;13.456;2023-02-13T02:51:23;103338.97;;;5.93;100.00
25759;BME280;13604;52.496;13.456;2023-02-13T02:54:17;103340.25;;;5.97;100.00
25759;BME280;13604;52.496;13.456;2023-02-13T02:57:13;103329.31;;;5.83;100.00
25759;BME280;13604;52.496;13.456;2023-02-13T02:59:40;103311.03;;;5.73;100.00
25759;BME280;13604;52.496;13.456;2023-02-13T03:02:27;103336.69;;;5.87;100.00
25759;BME280;13604;52.496;13.456;2023-02-13T03:05:26;103310.28;;;5.74;100.00
25759;BME280;13604;52.496;13.456;2023-02-13T03:08:11;103317.41;;;5.77;100.00
25759;BME280;13604;52.496;13.456;2023-02-13T03:10:37;103341.22;;;5.90;100.00
25759;BME280;13604;52.496;13.456;2023-02-13T03:13:29;103345.00;;;5.85;100.00
25759;BME280;13604;52.496;13.456;2023-02-13T03:15:58;103339.50;;;5.82;100.00
25759;BME280;13604;52.496;13.456;2023-02-13T03:18:46;103319.69;;;5.74;100.00
25759;BME280;13604;52.496;13.456;2023-02-13T03:21:34;103334.66;;;5.85;100.00
25759;BME280;13604;52.496;13.456;2023-02-13T03:24:52;103343.94;;;5.83;100.00
25759;BME280;13604;52.496;13.456;2023-02-13T03:27:36;103333.78;;;5.68;100.00
25759;BME280;13604;52.496;13.456;2023-02-13T03:33:33;103317.78;;;5.64;100.00
25759;BME280;13604;52.496;13.456;2023-02-13T03:36:10;103344.97;;;5.76;100.00
25759;BME280;13604;52.496;13.456;2023-02-13T03:39:08;103342.38;;;5.76;100.00
25759;BME280;13604;52.496;13.456;2023-02-13T03:41:42;103352.09;;;5.79;100.00
25759;BME280;13604;52.496;13.456;2023-02-13T03:44:22;103339.00;;;5.77;100.00
25759;BME280;13604;52.496;13.456;2023-02-13T03:46:52;103338.88;;;5.76;100.00
25759;BME280;13604;52.496;13.456;2023-02-13T03:49:22;103311.72;;;5.63;100.00
25759;BME280;13604;52.496;13.456;2023-02-13T03:52:23;103324.53;;;5.70;100.00
25759;BME280;13604;52.496;13.456;2023-02-13T03:54:53;103335.84;;;5.80;100.00
25759;BME280;13604;52.496;13.456;2023-02-13T03:57:40;103328.03;;;5.71;100.00
25759;BME280;13604;52.496;13.456;2023-02-13T04:00:29;103315.38;;;5.65;100.00
25759;BME280;13604;52.496;13.456;2023-02-13T04:03:08;103318.88;;;5.66;100.00
25759;BME280;13604;52.496;13.456;2023-02-13T04:05:40;103335.47;;;5.68;100.00
25759;BME280;13604;52.496;13.456;2023-02-13T04:08:07;103296.88;;;5.53;100.00
25759;BME280;13604;52.496;13.456;2023-02-13T04:10:34;103321.78;;;5.69;100.00
25759;BME280;13604;52.496;13.456;2023-02-13T04:13:26;103324.09;;;5.75;100.00
25759;BME280;13604;52.496;13.456;2023-02-13T04:15:58;103323.78;;;5.71;100.00
25759;BME280;13604;52.496;13.456;2023-02-13T04:18:29;103325.19;;;5.77;100.00
25759;BME280;13604;52.496;13.456;2023-02-13T04:20:56;103293.41;;;5.53;100.00
25759;BME280;13604;52.496;13.456;2023-02-13T04:23:21;103295.66;;;5.50;100.00
25759;BME280;13604;52.496;13.456;2023-02-13T04:25:51;103316.72;;;5.62;100.00
25759;BME280;13604;52.496;13.456;2023-02-13T04:28:18;103320.81;;;5.60;100.00
25759;BME280;13604;52.496;13.456;2023-02-13T04:30:43;103306.66;;;5.56;100.00
25759;BME280;13604;52.496;13.456;2023-02-13T04:33:08;103324.69;;;5.72;99.95
25759;BME280;13604;52.496;13.456;2023-02-13T04:35:34;103316.75;;;5.70;99.57
25759;BME280;13604;52.496;13.456;2023-02-13T04:37:59;103320.78;;;5.76;99.51
25759;BME280;13604;52.496;13.456;2023-02-13T04:40:25;103326.09;;;5.77;99.33
25759;BME280;13604;52.496;13.456;2023-02-13T04:42:50;103313.16;;;5.77;99.01
25759;BME280;13604;52.496;13.456;2023-02-13T04:45:15;103318.31;;;5.77;98.95
25759;BME280;13604;52.496;13.456;2023-02-13T04:47:41;103289.19;;;5.62;99.26
25759;BME280;13604;52.496;13.456;2023-02-13T04:50:06;103299.44;;;5.69;99.65
25759;BME280;13604;52.496;13.456;2023-02-13T04:52:32;103307.19;;;5.69;98.95
25759;BME280;13604;52.496;13.456;2023-02-13T04:54:57;103284.63;;;5.60;99.49
25759;BME280;13604;52.496;13.456;2023-02-13T04:57:22;103300.09;;;5.76;99.85
25759;BME280;13604;52.496;13.456;2023-02-13T04:59:47;103281.91;;;5.67;99.53
25759;BME280;13604;52.496;13.456;2023-02-13T05:02:13;103301.00;;;5.76;99.37
25759;BME280;13604;52.496;13.456;2023-02-13T05:04:38;103313.16;;;5.77;98.91
25759;BME280;13604;52.496;13.456;2023-02-13T05:07:03;103301.41;;;5.72;97.89
25759;BME280;13604;52.496;13.456;2023-02-13T05:09:29;103281.25;;;5.61;97.51
25759;BME280;13604;52.496;13.456;2023-02-13T05:11:54;103310.44;;;5.76;96.84
25759;BME280;13604;52.496;13.456;2023-02-13T05:14:19;103313.31;;;5.79;96.72
25759;BME280;13604;52.496;13.456;2023-02-13T05:16:46;103295.00;;;5.68;95.91
25759;BME280;13604;52.496;13.456;2023-02-13T05:19:11;103313.16;;;5.77;95.50
25759;BME280;13604;52.496;13.456;2023-02-13T05:21:37;103315.00;;;5.78;96.21
25759;BME280;13604;52.496;13.456;2023-02-13T05:24:20;103296.69;;;5.68;96.02
25759;BME280;13604;52.496;13.456;2023-02-13T05:26:46;103315.13;;;5.71;96.43
25759;BME280;13604;52.496;13.456;2023-02-13T05:29:11;103317.25;;;5.75;96.48
25759;BME280;13604;52.496;13.456;2023-02-13T05:31:51;103296.47;;;5.58;96.81
25759;BME280;13604;52.496;13.456;2023-02-13T05:34:18;103287.94;;;5.59;96.73
25759;BME280;13604;52.496;13.456;2023-02-13T05:36:43;103319.09;;;5.76;96.55
25759;BME280;13604;52.496;13.456;2023-02-13T05:39:08;103310.19;;;5.65;96.84
25759;BME280;13604;52.496;13.456;2023-02-13T05:41:34;103313.59;;;5.73;95.62
25759;BME280;13604;52.496;13.456;2023-02-13T05:43:59;103321.34;;;5.73;95.09
25759;BME280;13604;52.496;13.456;2023-02-13T05:46:24;103319.25;;;5.78;95.16
25759;BME280;13604;52.496;13.456;2023-02-13T05:48:50;103316.03;;;5.71;95.39
25759;BME280;13604;52.496;13.456;2023-02-13T05:51:17;103317.53;;;5.69;95.82
25759;BME280;13604;52.496;13.456;2023-02-13T05:53:42;103310.19;;;5.65;94.80
25759;BME280;13604;52.496;13.456;2023-02-13T05:56:07;103329.28;;;5.75;95.12
25759;BME280;13604;52.496;13.456;2023-02-13T05:58:33;103329.84;;;5.72;95.61
25759;BME280;13604;52.496;13.456;2023-02-13T06:00:59;103325.13;;;5.68;95.72
25759;BME280;13604;52.496;13.456;2023-02-13T06:03:25;103322.38;;;5.66;96.02
25759;BME280;13604;52.496;13.456;2023-02-13T06:05:52;103332.94;;;5.77;95.59
25759;BME280;13604;52.496;13.456;2023-02-13T06:08:17;103341.59;;;5.77;95.13
25759;BME280;13604;52.496;13.456;2023-02-13T06:10:43;103322.22;;;5.65;95.31
25759;BME280;13604;52.496;13.456;2023-02-13T06:13:08;103325.28;;;5.69;94.83
25759;BME280;13604;52.496;13.456;2023-02-13T06:15:33;103339.00;;;5.77;95.07
25759;BME280;13604;52.496;13.456;2023-02-13T06:17:59;103345.28;;;5.79;94.80
25759;BME280;13604;52.496;13.456;2023-02-13T06:20:25;103333.56;;;5.74;94.07
25759;BME280;13604;52.496;13.456;2023-02-13T06:22:50;103348.44;;;5.77;94.46
25759;BME280;13604;52.496;13.456;2023-02-13T06:25:16;103350.63;;;5.81;93.76
25759;BME280;13604;52.496;13.456;2023-02-13T06:27:41;103333.38;;;5.72;93.47
25759;BME280;13604;52.496;13.456;2023-02-13T06:30:07;103343.94;;;5.83;94.26
25759;BME280;13604;52.496;13.456;2023-02-13T06:32:32;103352.09;;;5.79;93.06
25759;BME280;13604;52.496;13.456;2023-02-13T06:34:58;103324.34;;;5.69;93.62
25759;BME280;13604;52.496;13.456;2023-02-13T06:37:23;103339.66;;;5.83;93.04
25759;BME280;13604;52.496;13.456;2023-02-13T06:39:48;103342.25;;;5.83;92.60
25759;BME280;13604;52.496;13.456;2023-02-13T06:42:14;103329.31;;;5.83;92.35
25759;BME280;13604;52.496;13.456;2023-02-13T06:44:39;103339.09;;;5.86;92.26
25759;BME280;13604;52.496;13.456;2023-02-13T06:47:04;103359.34;;;5.90;91.74
25759;BME280;13604;52.496;13.456;2023-02-13T06:49:29;103361.19;;;5.91;91.69
25759;BME280;13604;52.496;13.456;2023-02-13T06:51:55;103340.53;;;5.75;91.81
25759;BME280;13604;52.496;13.456;2023-02-13T06:54:20;103332.28;;;5.70;91.45
25759;BME280;13604;52.496;13.456;2023-02-13T06:56:45;103363.88;;;5.84;91.72
25759;BME280;13604;52.496;13.456;2023-02-13T06:59:11;103352.28;;;5.80;91.06
25759;BME280;13604;52.496;13.456;2023-02-13T07:01:36;103376.38;;;5.88;91.33
25759;BME280;13604;52.496;13.456;2023-02-13T07:04:01;103376.09;;;5.94;91.15
25759;BME280;13604;52.496;13.456;2023-02-13T07:06:26;103348.94;;;5.81;90.89
25759;BME280;13604;52.496;13.456;2023-02-13T07:08:52;103368.69;;;5.97;91.41
25759;BME280;13604;52.496;13.456;2023-02-13T07:11:21;103377.03;;;5.94;91.21
25759;BME280;13604;52.496;13.456;2023-02-13T07:13:47;103372.97;;;5.96;91.37
25759;BME280;13604;52.496;13.456;2023-02-13T07:16:12;103368.69;;;5.97;91.17
25759;BME280;13604;52.496;13.456;2023-02-13T07:18:38;103349.44;;;5.86;91.50
25759;BME280;13604;52.496;13.456;2023-02-13T07:21:03;103374.81;;;5.97;91.27
25759;BME280;13604;52.496;13.456;2023-02-13T07:23:28;103374.13;;;6.07;91.90
25759;BME280;13604;52.496;13.456;2023-02-13T07:25:54;103349.94;;;5.90;91.69
25759;BME280;13604;52.496;13.456;2023-02-13T07:28:19;103363.16;;;5.94;92.11
25759;BME280;13604;52.496;13.456;2023-02-13T07:30:44;103352.34;;;5.89;91.92
25759;BME280;13604;52.496;13.456;2023-02-13T07:33:10;103363.84;;;6.00;91.47
25759;BME280;13604;52.496;13.456;2023-02-13T07:35:35;103374.69;;;6.04;92.29
25759;BME280;13604;52.496;13.456;2023-02-13T07:38:02;103386.19;;;6.15;92.01
25759;BME280;13604;52.496;13.456;2023-02-13T07:40:28;103373.81;;;6.13;91.95
25759;BME280;13604;52.496;13.456;2023-02-13T07:42:54;103361.63;;;6.12;91.82
25759;BME280;13604;52.496;13.456;2023-02-13T07:45:19;103383.03;;;6.26;91.67
25759;BME280;13604;52.496;13.456;2023-02-13T07:47:44;103355.31;;;6.17;91.42
25759;BME280;13604;52.496;13.456;2023-02-13T07:50:10;103379.53;;;6.26;91.31
25759;BME280;13604;52.496;13.456;2023-02-13T07:52:35;103375.22;;;6.18;91.52
25759;BME280;13604;52.496;13.456;2023-02-13T07:55:04;103391.28;;;6.31;91.69
25759;BME280;13604;52.496;13.456;2023-02-13T07:57:30;103388.06;;;6.25;91.17
25759;BME280;13604;52.496;13.456;2023-02-13T07:59:56;103372.97;;;6.21;91.37
25759;BME280;13604;52.496;13.456;2023-02-13T08:02:21;103385.31;;;6.23;91.45
25759;BME280;13604;52.496;13.456;2023-02-13T08:04:46;103366.81;;;6.12;90.95
25759;BME280;13604;52.496;13.456;2023-02-13T08:07:15;103403.31;;;6.31;91.59
25759;BME280;13604;52.496;13.456;2023-02-13T08:09:43;103366.88;;;6.20;90.73
25759;BME280;13604;52.496;13.456;2023-02-13T08:12:28;103396.44;;;6.31;91.64
25759;BME280;13604;52.496;13.456;2023-02-13T08:14:53;103386.09;;;6.31;90.94
25759;BME280;13604;52.496;13.456;2023-02-13T08:17:18;103373.00;;;6.30;90.51
25759;BME280;13604;52.496;13.456;2023-02-13T08:19:43;103400.50;;;6.45;91.07
25759;BME280;13604;52.496;13.456;2023-02-13T08:22:09;103393.66;;;6.45;91.26
25759;BME280;13604;52.496;13.456;2023-02-13T08:24:34;103383.28;;;6.45;90.90
25759;BME280;13604;52.496;13.456;2023-02-13T08:26:59;103405.84;;;6.47;92.87
25759;BME280;13604;52.496;13.456;2023-02-13T08:29:25;103396.16;;;6.61;91.37
25759;BME280;13604;52.496;13.456;2023-02-13T08:31:50;103397.38;;;6.65;91.34
25759;BME280;13604;52.496;13.456;2023-02-13T08:34:15;103391.88;;;6.62;91.50
25759;BME280;13604;52.496;13.456;2023-02-13T08:36:41;103389.16;;;6.69;90.72
25759;BME280;13604;52.496;13.456;2023-02-13T08:39:08;103398.63;;;6.77;89.94
25759;BME280;13604;52.496;13.456;2023-02-13T08:41:34;103407.66;;;6.81;90.40
25759;BME280;13604;52.496;13.456;2023-02-13T08:43:59;103373.03;;;6.72;89.81
25759;BME280;13604;52.496;13.456;2023-02-13T08:46:25;103378.06;;;6.79;89.38
25759;BME280;13604;52.496;13.456;2023-02-13T08:48:50;103393.38;;;6.93;89.29
25759;BME280;13604;52.496;13.456;2023-02-13T08:51:15;103388.34;;;6.95;88.97
25759;BME280;13604;52.496;13.456;2023-02-13T08:53:41;103391.06;;;6.88;89.05
25759;BME280;13604;52.496;13.456;2023-02-13T08:56:06;103401.63;;;6.98;88.49
25759;BME280;13604;52.496;13.456;2023-02-13T08:58:32;103391.53;;;6.92;88.17
25759;BME280;13604;52.496;13.456;2023-02-13T09:00:57;103391.06;;;6.88;89.11
25759;BME280;13604;52.496;13.456;2023-02-13T09:03:23;103370.28;;;6.70;88.51
25759;BME280;13604;52.496;13.456;2023-02-13T09:05:48;103393.16;;;6.74;89.38
25759;BME280;13604;52.496;13.456;2023-02-13T09:08:14;103374.72;;;6.71;89.45
25759;BME280;13604;52.496;13.456;2023-02-13T09:10:40;103391.59;;;6.68;89.76
25759;BME280;13604;52.496;13.456;2023-02-13T09:13:07;103394.34;;;6.69;90.44
25759;BME280;13604;52.496;13.456;2023-02-13T09:15:33;103400.56;;;6.62;91.02
25759;BME280;13604;52.496;13.456;2023-02-13T09:17:58;103390.03;;;6.61;90.82
25759;BME280;13604;52.496;13.456;2023-02-13T09:20:24;103375.84;;;6.49;91.27
25759;BME280;13604;52.496;13.456;2023-02-13T09:22:49;103400.72;;;6.64;91.76
25759;BME280;13604;52.496;13.456;2023-02-13T09:25:14;103389.88;;;6.59;91.76
25759;BME280;13604;52.496;13.456;2023-02-13T09:27:40;103397.72;;;6.68;91.18
25759;BME280;13604;52.496;13.456;2023-02-13T09:30:07;103399.53;;;6.69;91.61
25759;BME280;13604;52.496;13.456;2023-02-13T09:32:33;103422.28;;;6.80;91.48
25759;BME280;13604;52.496;13.456;2023-02-13T09:34:58;103390.13;;;6.78;91.30
25759;BME280;13604;52.496;13.456;2023-02-13T09:37:24;103407.38;;;6.95;91.91
25759;BME280;13604;52.496;13.456;2023-02-13T09:39:50;103401.88;;;6.84;92.02
25759;BME280;13604;52.496;13.456;2023-02-13T09:42:25;103399.84;;;6.72;92.90
25759;BME280;13604;52.496;13.456;2023-02-13T09:44:54;103434.31;;;6.80;93.82
25759;BME280;13604;52.496;13.456;2023-02-13T09:47:31;103417.88;;;6.79;94.75
25759;BME280;13604;52.496;13.456;2023-02-13T09:50:02;103419.97;;;6.75;95.66
25759;BME280;13604;52.496;13.456;2023-02-13T09:52:32;103415.22;;;6.71;96.91
25759;BME280;13604;52.496;13.456;2023-02-13T09:54:59;103422.56;;;6.75;97.13
25759;BME280;13604;52.496;13.456;2023-02-13T09:57:38;103402.69;;;6.58;98.58
25759;BME280;13604;52.496;13.456;2023-02-13T10:00:22;103407.44;;;6.62;100.00
25759;BME280;13604;52.496;13.456;2023-02-13T10:05:49;103381.09;;;6.33;100.00
25759;BME280;13604;52.496;13.456;2023-02-13T10:11:28;103419.91;;;6.33;100.00
25759;BME280;13604;52.496;13.456;2023-02-13T10:14:22;103426.44;;;6.29;100.00
25759;BME280;13604;52.496;13.456;2023-02-13T10:16:53;103412.66;;;6.46;100.00
25759;BME280;13604;52.496;13.456;2023-02-13T10:19:32;103377.81;;;6.51;100.00
25759;BME280;13604;52.496;13.456;2023-02-13T10:22:18;103413.91;;;6.83;100.00
25759;BME280;13604;52.496;13.456;2023-02-13T10:24:51;103404.78;;;6.87;100.00
25759;BME280;13604;52.496;13.456;2023-02-13T10:27:22;103391.09;;;7.05;100.00
25759;BME280;13604;52.496;13.456;2023-02-13T10:30:08;103407.34;;;7.29;100.00
25759;BME280;13604;52.496;13.456;2023-02-13T10:33:00;103407.66;;;7.32;100.00
25759;BME280;13604;52.496;13.456;2023-02-13T10:36:00;103414.47;;;7.14;100.00
25759;BME280;13604;52.496;13.456;2023-02-13T10:38:29;103397.38;;;7.07;100.00
25759;BME280;13604;52.496;13.456;2023-02-13T10:43:29;103403.38;;;7.24;100.00
25759;BME280;13604;52.496;13.456;2023-02-13T10:46:16;103406.69;;;7.31;100.00
25759;BME280;13604;52.496;13.456;2023-02-13T10:49:02;103380.78;;;7.14;99.85
25759;BME280;13604;52.496;13.456;2023-02-13T10:51:39;103386.13;;;7.24;99.37
25759;BME280;13604;52.496;13.456;2023-02-13T10:56:52;103380.66;;;7.39;97.60
25759;BME280;13604;52.496;13.456;2023-02-13T10:59:47;103356.38;;;7.29;96.46
25759;BME280;13604;52.496;13.456;2023-02-13T11:02:24;103382.16;;;7.28;97.33
25759;BME280;13604;52.496;13.456;2023-02-13T11:07:33;103365.34;;;6.98;97.86
25759;BME280;13604;52.496;13.456;2023-02-13T11:10:03;103373.75;;;7.13;97.41
25759;BME280;13604;52.496;13.456;2023-02-13T11:12:31;103377.88;;;7.28;96.98
25759;BME280;13604;52.496;13.456;2023-02-13T11:15:03;103381.41;;;7.29;96.04
25759;BME280;13604;52.496;13.456;2023-02-13T11:17:32;103379.41;;;7.35;95.13
25759;BME280;13604;52.496;13.456;2023-02-13T11:20:04;103354.72;;;7.21;93.64
25759;BME280;13604;52.496;13.456;2023-02-13T11:22:41;103378.38;;;7.50;93.63
25759;BME280;13604;52.496;13.456;2023-02-13T11:25:19;103363.09;;;7.45;92.78
25759;BME280;13604;52.496;13.456;2023-02-13T11:27:47;103360.06;;;7.49;92.15
25759;BME280;13604;52.496;13.456;2023-02-13T11:33:03;103375.31;;;7.89;91.33
25759;BME280;13604;52.496;13.456;2023-02-13T11:35:35;103366.00;;;7.65;89.83
25759;BME280;13604;52.496;13.456;2023-02-13T11:38:19;103361.59;;;7.73;88.59
25759;BME280;13604;52.496;13.456;2023-02-13T11:40:49;103359.00;;;7.73;89.38
25759;BME280;13604;52.496;13.456;2023-02-13T11:43:28;103366.47;;;7.70;88.91
25759;BME280;13604;52.496;13.456;2023-02-13T11:46:06;103359.00;;;7.55;89.12
25759;BME280;13604;52.496;13.456;2023-02-13T11:48:32;103342.97;;;7.51;87.97
25759;BME280;13604;52.496;13.456;2023-02-13T11:50:57;103360.34;;;7.61;88.30
25759;BME280;13604;52.496;13.456;2023-02-13T11:53:26;103330.00;;;7.51;88.89
25759;BME280;13604;52.496;13.456;2023-02-13T11:56:04;103348.91;;;7.67;89.30
25759;BME280;13604;52.496;13.456;2023-02-13T11:58:30;103340.38;;;7.60;88.54
25759;BME280;13604;52.496;13.456;2023-02-13T12:04:05;103343.25;;;7.63;88.10
25759;BME280;13604;52.496;13.456;2023-02-13T12:06:33;103334.75;;;7.55;87.46
25759;BME280;13604;52.496;13.456;2023-02-13T12:09:13;103323.44;;;7.54;88.34
25759;BME280;13604;52.496;13.456;2023-02-13T12:11:51;103320.72;;;7.62;87.74
25759;BME280;13604;52.496;13.456;2023-02-13T12:14:20;103328.63;;;7.63;87.09
25759;BME280;13604;52.496;13.456;2023-02-13T12:17:06;103346.63;;;7.53;86.23
25759;BME280;13604;52.496;13.456;2023-02-13T12:19:41;103345.41;;;7.49;86.57
25759;BME280;13604;52.496;13.456;2023-02-13T12:28:10;103350.59;;;7.49;84.68
25759;BME280;13604;52.496;13.456;2023-02-13T12:31:01;103342.66;;;7.48;84.94
25759;BME280;13604;52.496;13.456;2023-02-13T12:34:07;103338.56;;;7.59;83.51
25759;BME280;13604;52.496;13.456;2023-02-13T12:36:56;103346.47;;;7.69;83.96
25759;BME280;13604;52.496;13.456;2023-02-13T12:39:33;103342.94;;;7.77;83.61
25759;BME280;13604;52.496;13.456;2023-02-13T12:42:26;103329.84;;;7.67;83.12
25759;BME280;13604;52.496;13.456;2023-02-13T12:45:28;103346.16;;;7.66;82.57
25759;BME280;13604;52.496;13.456;2023-02-13T12:48:10;103354.41;;;7.62;83.43
25759;BME280;13604;52.496;13.456;2023-02-13T12:53:20;103348.47;;;7.54;83.53
25759;BME280;13604;52.496;13.456;2023-02-13T12:56:02;103323.00;;;7.32;82.40
25759;BME280;13604;52.496;13.456;2023-02-13T13:01:32;103340.38;;;7.51;82.75
25759;BME280;13604;52.496;13.456;2023-02-13T13:04:28;103342.06;;;7.50;82.40
25759;BME280;13604;52.496;13.456;2023-02-13T13:10:42;103343.28;;;7.45;83.71
25759;BME280;13604;52.496;13.456;2023-02-13T13:21:39;103348.16;;;7.68;84.14
25759;BME280;13604;52.496;13.456;2023-02-13T13:27:22;103314.44;;;7.33;84.93
25759;BME280;13604;52.496;13.456;2023-02-13T13:29:56;103320.88;;;7.37;85.08
25759;BME280;13604;52.496;13.456;2023-02-13T13:32:23;103333.66;;;7.27;84.99
25759;BME280;13604;52.496;13.456;2023-02-13T13:34:49;103315.97;;;7.23;85.35
25759;BME280;13604;52.496;13.456;2023-02-13T13:37:35;103344.97;;;7.27;85.68
25759;BME280;13604;52.496;13.456;2023-02-13T13:43:09;103338.53;;;7.15;86.11
25759;BME280;13604;52.496;13.456;2023-02-13T13:46:24;103343.59;;;7.22;86.73
25759;BME280;13604;52.496;13.456;2023-02-13T13:48:59;103341.75;;;7.12;87.08
25759;BME280;13604;52.496;13.456;2023-02-13T13:51:30;103332.44;;;7.06;86.29
25759;BME280;13604;52.496;13.456;2023-02-13T13:59:24;103331.38;;;7.21;86.56
25759;BME280;13604;52.496;13.456;2023-02-13T14:07:35;103322.53;;;7.19;87.98
25759;BME280;13604;52.496;13.456;2023-02-13T14:10:01;103321.44;;;7.17;87.10
25759;BME280;13604;52.496;13.456;2023-02-13T14:14:52;103317.59;;;6.87;87.24
25759;BME280;13604;52.496;13.456;2023-02-13T14:20:32;103315.47;;;6.83;89.11
25759;BME280;13604;52.496;13.456;2023-02-13T14:23:16;103287.25;;;6.69;87.78
25759;BME280;13604;52.496;13.456;2023-02-13T14:25:43;103308.63;;;6.84;87.81
25759;BME280;13604;52.496;13.456;2023-02-13T14:28:21;103269.75;;;6.66;87.77
25759;BME280;13604;52.496;13.456;2023-02-13T14:30:48;103281.19;;;6.77;88.09